createdAt,value
2022-11-08T00:01:43.712Z,-11165.13
2022-11-08T00:04:50.109Z,-11160.50
2022-11-08T00:08:13.806Z,-11169.22
2022-11-08T00:11:37.804Z,-11166.69
2022-11-08T00:14:44.282Z,-11158.25
2022-11-08T00:17:51.946Z,-11160.78
2022-11-08T00:21:02.847Z,-11161.63
2022-11-08T00:24:08.981Z,-11160.78
2022-11-08T00:27:16.510Z,-11163.88
2022-11-08T00:30:22.819Z,-11164.44
2022-11-08T00:33:31.601Z,-11165.97
2022-11-08T00:36:37.959Z,-11157.81
2022-11-08T00:39:44.551Z,-11148.53
2022-11-08T00:42:51.106Z,-11153.47
2022-11-08T00:45:57.173Z,-11150.66
2022-11-08T00:49:05.080Z,-11159.66
2022-11-08T00:52:11.274Z,-11152.75
2022-11-08T00:55:17.529Z,-11156.28
2022-11-08T00:58:27.513Z,-11161.91
2022-11-08T01:01:34.575Z,-11160.78
2022-11-08T01:04:42.127Z,-11163.88
2022-11-08T01:07:48.410Z,-11165.84
2022-11-08T01:10:54.458Z,-11161.75
2022-11-08T01:14:01.952Z,-11156.00
2022-11-08T01:17:07.870Z,-11153.47
2022-11-08T01:20:15.413Z,-11161.91
2022-11-08T01:23:21.774Z,-11159.66
2022-11-08T01:26:29.581Z,-11165.00
2022-11-08T01:29:36.116Z,-11158.38
2022-11-08T01:32:42.306Z,-11151.34
2022-11-08T01:35:49.673Z,-11166.69
2022-11-08T01:38:57.042Z,-11168.37
2022-11-08T01:42:03.237Z,-11158.94
2022-11-08T01:45:11.810Z,-11164.72
2022-11-08T01:48:18.314Z,-11163.72
2022-11-08T01:51:30.173Z,-11162.47
2022-11-08T01:54:45.089Z,-11154.03
2022-11-08T01:57:56.244Z,-11148.81
2022-11-08T02:01:03.632Z,-11156.28
2022-11-08T02:04:09.866Z,-11157.97
2022-11-08T02:07:18.448Z,-11157.41
2022-11-08T02:10:27.973Z,-11147.28
2022-11-08T02:13:35.771Z,-11151.34
2022-11-08T02:16:41.556Z,-11157.81
2022-11-08T02:19:50.962Z,-11153.31
2022-11-08T02:23:06.234Z,-11150.66
2022-11-08T02:26:14.247Z,-11151.22
2022-11-08T02:29:25.878Z,-11156.13
2022-11-08T02:32:39.314Z,-11157.41
2022-11-08T02:35:48.091Z,-11153.47
2022-11-08T02:38:56.456Z,-11158.09
2022-11-08T02:42:04.507Z,-11160.63
2022-11-08T02:45:11.238Z,-11159.38
2022-11-08T02:48:18.204Z,-11157.81
2022-11-08T02:51:24.614Z,-11150.78
2022-11-08T02:54:30.682Z,-11155.28
2022-11-08T02:57:44.338Z,-11154.88
2022-11-08T03:00:51.545Z,-11150.66
2022-11-08T03:04:00.605Z,-11148.97
2022-11-08T03:07:07.211Z,-11125.94
2022-11-08T03:10:13.853Z,-11125.22
2022-11-08T03:13:21.616Z,-11133.50
2022-11-08T03:16:27.969Z,-11138.00
2022-11-08T03:19:34.389Z,-11139.97
2022-11-08T03:22:40.707Z,-11139.69
2022-11-08T03:25:47.030Z,-11145.59
2022-11-08T03:28:54.476Z,-11148.97
2022-11-08T03:32:00.806Z,-11142.50
2022-11-08T03:35:07.667Z,-11156.13
2022-11-08T03:38:13.428Z,-11139.28
2022-11-08T03:41:19.634Z,-11142.22
2022-11-08T03:44:27.055Z,-11137.88
2022-11-08T03:47:33.059Z,-11145.59
2022-11-08T03:50:39.190Z,-11143.34
2022-11-08T03:53:45.381Z,-11148.13
2022-11-08T03:56:51.651Z,-11150.66
2022-11-08T03:59:59.238Z,-11156.41
2022-11-08T04:03:06.135Z,-11150.66
2022-11-08T04:06:12.290Z,-11153.47
2022-11-08T04:09:21.490Z,-11147.41
2022-11-08T04:12:45.692Z,-11145.47
2022-11-08T04:15:57.126Z,-11138.16
2022-11-08T04:19:20.965Z,-11141.53
2022-11-08T04:22:27.080Z,-11142.78
2022-11-08T04:25:35.235Z,-11150.09
2022-11-08T04:28:42.622Z,-11159.78
2022-11-08T04:31:50.148Z,-11152.63
2022-11-08T04:34:55.998Z,-11153.75
2022-11-08T04:38:03.163Z,-11156.56
2022-11-08T04:41:11.948Z,-11157.41
2022-11-08T04:44:18.575Z,-11158.25
2022-11-08T04:47:25.866Z,-11155.56
2022-11-08T04:50:32.160Z,-11157.69
2022-11-08T04:53:38.413Z,-11155.16
2022-11-08T04:56:44.542Z,-11143.91
2022-11-08T04:59:52.036Z,-11129.72
2022-11-08T05:03:02.755Z,-11124.25
2022-11-08T05:06:13.361Z,-11130.84
2022-11-08T05:09:19.433Z,-11133.78
2022-11-08T05:12:25.545Z,-11133.50
2022-11-08T05:15:31.588Z,-11123.81
2022-11-08T05:18:41.728Z,-11122.56
2022-11-08T05:22:05.954Z,-11127.19
2022-11-08T05:25:11.870Z,-11141.09
2022-11-08T05:28:18.929Z,-11150.38
2022-11-08T05:31:25.320Z,-11145.03
2022-11-08T05:34:33.016Z,-11132.94
2022-11-08T05:37:43.138Z,-11148.97
2022-11-08T05:40:49.463Z,-11143.50
2022-11-08T05:43:56.732Z,-11161.91
2022-11-08T05:47:03.025Z,-11147.84
2022-11-08T05:50:12.407Z,-11163.31
2022-11-08T05:53:21.988Z,-11171.19
2022-11-08T05:56:27.898Z,-11182.56
2022-11-08T05:59:34.058Z,-11186.50
2022-11-08T06:02:40.383Z,-11191.97
2022-11-08T06:05:47.836Z,-11196.19
2022-11-08T06:08:54.767Z,-11191.97
2022-11-08T06:12:01.019Z,-11190.00
2022-11-08T06:15:09.418Z,-11181.28
2022-11-08T06:18:15.603Z,-11170.19
2022-11-08T06:21:23.631Z,-11165.00
2022-11-08T06:24:29.780Z,-11171.75
2022-11-08T06:27:36.663Z,-11165.56
2022-11-08T06:30:43.179Z,-11160.78
2022-11-08T06:33:50.431Z,-11158.66
2022-11-08T06:37:00.388Z,-11164.16
2022-11-08T06:40:07.442Z,-11160.78
2022-11-08T06:43:19.357Z,-11162.03
2022-11-08T06:46:26.300Z,-11167.81
2022-11-08T06:49:32.670Z,-11154.88
2022-11-08T06:52:40.957Z,-11159.94
2022-11-08T06:55:47.458Z,-11165.69
2022-11-08T06:58:53.532Z,-11163.59
2022-11-08T07:01:59.917Z,-11166.97
2022-11-08T07:05:06.857Z,-11167.53
2022-11-08T07:08:15.379Z,-11171.31
2022-11-08T07:11:23.296Z,-11177.91
2022-11-08T07:14:29.736Z,-11178.91
2022-11-08T07:17:38.685Z,-11194.66
2022-11-08T07:20:45.426Z,-11209.97
2022-11-08T07:23:53.136Z,-11214.06
2022-11-08T07:26:59.679Z,-11218.97
2022-11-08T07:30:07.137Z,-11222.50
2022-11-08T07:33:13.618Z,-11221.22
2022-11-08T07:36:20.058Z,-11233.03
2022-11-08T07:39:27.595Z,-11244.03
2022-11-08T07:43:04.772Z,-11248.53
2022-11-08T07:46:04.120Z,-11235.59
2022-11-08T07:49:10.605Z,-11251.34
2022-11-08T07:52:16.613Z,-11247.69
2022-11-08T07:55:24.566Z,-11258.94
2022-11-08T07:58:30.815Z,-11261.19
2022-11-08T08:01:37.529Z,-11267.94
2022-11-08T08:04:44.512Z,-11267.66
2022-11-08T08:07:50.920Z,-11287.91
2022-11-08T08:11:00.515Z,-11288.78
2022-11-08T08:14:06.859Z,-11269.06
2022-11-08T08:17:12.977Z,-11295.53
2022-11-08T08:20:19.471Z,-11294.97
2022-11-08T08:23:25.858Z,-11291.88
2022-11-08T08:26:33.702Z,-11294.25
2022-11-08T08:29:39.856Z,-11303.84
2022-11-08T08:32:47.929Z,-11301.72
2022-11-08T08:36:01.965Z,-11309.59
2022-11-08T08:39:08.837Z,-11313.97
2022-11-08T08:42:16.831Z,-11308.47
2022-11-08T08:45:23.321Z,-11327.50
2022-11-08T08:48:29.601Z,-11325.50
2022-11-08T08:51:35.936Z,-11318.47
2022-11-08T08:54:42.065Z,-11319.87
2022-11-08T08:57:50.321Z,-11324.25
2022-11-08T09:04:28.263Z,-11348.19
2022-11-08T09:07:34.985Z,-11361.28
2022-11-08T09:10:41.829Z,-11363.69
2022-11-08T09:13:49.590Z,-11360.31
2022-11-08T09:16:55.910Z,-11350.44
2022-11-08T09:20:02.046Z,-11365.94
2022-11-08T09:23:08.134Z,-11374.13
2022-11-08T09:26:14.444Z,-11366.50
2022-11-08T09:29:22.538Z,-11365.53
2022-11-08T09:32:54.099Z,-11367.06
2022-11-08T09:35:55.117Z,-11367.34
2022-11-08T09:39:01.228Z,-11361.56
2022-11-08T09:42:31.071Z,-11389.91
2022-11-08T09:45:44.657Z,-11368.34
2022-11-08T09:48:52.322Z,-11377.22
2022-11-08T09:51:59.710Z,-11392.44
2022-11-08T09:55:19.146Z,-11381.03
2022-11-08T09:58:35.626Z,-11407.38
2022-11-08T10:01:43.251Z,-11391.59
2022-11-08T10:04:56.249Z,-11405.53
2022-11-08T10:08:09.075Z,-11398.63
2022-11-08T10:11:26.493Z,-11426.53
2022-11-08T10:14:49.192Z,-11414.28
2022-11-08T10:18:22.358Z,-11402.88
2022-11-08T10:21:54.747Z,-11425.13
2022-11-08T10:25:03.144Z,-11444.44
2022-11-08T10:28:09.762Z,-11433.59
2022-11-08T10:31:16.517Z,-11416.94
2022-11-08T10:34:29.296Z,-11437.53
2022-11-08T10:37:35.624Z,-11437.81
2022-11-08T10:40:46.922Z,-11421.19
2022-11-08T10:43:59.065Z,-11437.41
2022-11-08T10:47:08.886Z,-11442.06
2022-11-08T10:50:20.974Z,-11440.22
2022-11-08T10:53:28.710Z,-11414.97
2022-11-08T10:56:56.326Z,-11444.88
2022-11-08T11:00:25.578Z,-11441.75
2022-11-08T11:03:31.789Z,-11436.41
2022-11-08T11:06:39.226Z,-11440.34
2022-11-08T11:09:45.330Z,-11421.19
2022-11-08T11:12:52.862Z,-11414.28
2022-11-08T11:16:03.458Z,-11428.66
2022-11-08T11:19:16.366Z,-11431.63
2022-11-08T11:22:30.404Z,-11437.81
2022-11-08T11:25:36.567Z,-11437.25
2022-11-08T11:29:15.999Z,-11437.25
2022-11-08T11:32:25.661Z,-11461.22
2022-11-08T11:35:45.279Z,-11461.50
2022-11-08T11:39:01.937Z,-11449.09
2022-11-08T11:42:43.848Z,-11456.72
2022-11-08T11:45:48.665Z,-11467.28
2022-11-08T11:49:02.100Z,-11441.19
2022-11-08T11:52:17.669Z,-11451.06
2022-11-08T11:55:31.070Z,-11465.59
2022-11-08T11:58:54.167Z,-11460.38
2022-11-08T12:02:23.352Z,-11456.16
2022-11-08T12:05:37.303Z,-11457.28
2022-11-08T12:09:05.311Z,-11455.31
2022-11-08T12:12:26.529Z,-11460.38
2022-11-08T12:15:39.184Z,-11457.97
2022-11-08T12:19:01.643Z,-11431.63
2022-11-08T12:22:33.555Z,-11436.13
2022-11-08T12:25:48.287Z,-11446.84
2022-11-08T12:29:20.083Z,-11437.25
2022-11-08T12:32:47.170Z,-11445.56
2022-11-08T12:36:04.625Z,-11446.28
2022-11-08T12:39:24.042Z,-11443.47
2022-11-08T12:42:51.621Z,-11430.34
2022-11-08T12:46:08.733Z,-11430.34
2022-11-08T12:49:28.910Z,-11435.69
2022-11-08T12:52:49.375Z,-11434.16
2022-11-08T12:56:00.335Z,-11422.03
2022-11-08T12:59:19.699Z,-11438.94
2022-11-08T13:02:31.552Z,-11443.47
2022-11-08T13:05:41.443Z,-11433.16
2022-11-08T13:08:54.013Z,-11429.09
2022-11-08T13:12:08.400Z,-11428.66
2022-11-08T13:15:20.827Z,-11450.22
2022-11-08T13:18:36.267Z,-11466.88
2022-11-08T13:21:43.254Z,-11457.69
2022-11-08T13:24:49.557Z,-11443.75
2022-11-08T13:27:56.514Z,-11437.69
2022-11-08T13:31:13.285Z,-11435.84
2022-11-08T13:34:46.157Z,-11435.28
2022-11-08T13:38:04.277Z,-11423.59
2022-11-08T13:41:17.688Z,-11423.72
2022-11-08T13:45:13.595Z,-11423.72
2022-11-08T13:48:37.803Z,-11425.00
2022-11-08T13:51:46.229Z,-11427.66
2022-11-08T13:54:55.272Z,-11419.50
2022-11-08T13:58:02.667Z,-11406.25
2022-11-08T14:01:10.393Z,-11408.50
2022-11-08T14:04:26.605Z,-11403.84
2022-11-08T14:07:42.097Z,-11405.53
2022-11-08T14:11:27.180Z,-11401.72
2022-11-08T14:14:44.508Z,-11400.31
2022-11-08T14:17:56.766Z,-11397.22
2022-11-08T14:21:05.148Z,-11395.41
2022-11-08T14:24:20.148Z,-11397.94
2022-11-08T14:27:38.970Z,-11396.09
2022-11-08T14:30:50.769Z,-11390.03
2022-11-08T14:33:57.866Z,-11387.34
2022-11-08T14:37:05.732Z,-11378.47
2022-11-08T14:40:24.743Z,-11373.84
2022-11-08T14:43:31.324Z,-11374.41
2022-11-08T14:46:40.934Z,-11371.44
2022-11-08T14:49:49.322Z,-11365.38
2022-11-08T14:52:55.616Z,-11363.97
2022-11-08T14:56:16.809Z,-11358.91
2022-11-08T14:59:24.910Z,-11358.06
2022-11-08T15:02:32.040Z,-11357.50
2022-11-08T15:05:42.379Z,-11357.63
2022-11-08T15:08:52.109Z,-11348.47
2022-11-08T15:12:01.663Z,-11343.69
2022-11-08T15:15:19.603Z,-11342.84
2022-11-08T15:18:33.341Z,-11335.94
2022-11-08T15:21:49.433Z,-11334.66
2022-11-08T15:25:19.579Z,-11335.78
2022-11-08T15:28:33.868Z,-11327.91
2022-11-08T15:31:44.733Z,-11325.50
2022-11-08T15:34:57.742Z,-11326.22
2022-11-08T15:38:05.967Z,-11322.84
2022-11-08T15:41:39.153Z,-11315.81
2022-11-08T15:45:06.098Z,-11304.53
2022-11-08T15:48:21.194Z,-11307.06
2022-11-08T15:51:27.343Z,-11306.22
2022-11-08T15:54:33.580Z,-11305.94
2022-11-08T15:57:43.045Z,-11296.38
2022-11-08T16:00:51.294Z,-11276.94
2022-11-08T16:03:57.477Z,-11281.44
2022-11-08T16:07:03.870Z,-11277.38
2022-11-08T16:10:11.979Z,-11273.16
2022-11-08T16:13:20.938Z,-11273.44
2022-11-08T16:16:33.985Z,-11272.59
2022-11-08T16:19:41.345Z,-11269.91
2022-11-08T16:22:47.239Z,-11269.06
2022-11-08T16:25:56.005Z,-11259.50
2022-11-08T16:29:02.012Z,-11256.69
2022-11-08T16:32:11.713Z,-11260.06
2022-11-08T16:35:18.735Z,-11256.69
2022-11-08T16:38:27.554Z,-11252.19
2022-11-08T16:41:33.340Z,-11250.50
2022-11-08T16:44:40.861Z,-11249.22
2022-11-08T16:47:51.010Z,-11247.97
2022-11-08T16:51:01.391Z,-11245.72
2022-11-08T16:54:18.691Z,-11247.13
2022-11-08T16:57:40.357Z,-11247.97
2022-11-08T17:00:47.000Z,-11229.66
2022-11-08T17:03:54.596Z,-11224.88
2022-11-08T17:07:00.523Z,-11225.16
2022-11-08T17:10:07.813Z,-11231.06
2022-11-08T17:13:15.455Z,-11235.03
2022-11-08T17:16:21.817Z,-11238.66
2022-11-08T17:19:29.248Z,-11237.28
2022-11-08T17:22:35.605Z,-11240.63
2022-11-08T17:25:44.576Z,-11235.59
2022-11-08T17:28:51.043Z,-11243.59
2022-11-08T17:31:57.130Z,-11225.59
2022-11-08T17:35:06.154Z,-11231.78
2022-11-08T17:38:12.444Z,-11223.91
2022-11-08T17:41:19.058Z,-11227.41
2022-11-08T17:44:26.239Z,-11224.59
2022-11-08T17:47:32.448Z,-11218.69
2022-11-08T17:50:40.089Z,-11219.13
2022-11-08T17:53:46.318Z,-11217.84
2022-11-08T17:56:52.486Z,-11205.47
2022-11-08T17:59:59.022Z,-11198.72
2022-11-08T18:03:08.853Z,-11195.91
2022-11-08T18:06:19.274Z,-11202.81
2022-11-08T18:09:26.433Z,-11203.22
2022-11-08T18:12:32.717Z,-11198.59
2022-11-08T18:15:38.969Z,-11195.91
2022-11-08T18:18:46.455Z,-11186.06
2022-11-08T18:21:53.889Z,-11184.94
2022-11-08T18:25:00.554Z,-11190.56
2022-11-08T18:28:07.491Z,-11188.19
2022-11-08T18:31:16.223Z,-11185.78
2022-11-08T18:34:22.601Z,-11161.34
2022-11-08T18:37:30.050Z,-11156.41
2022-11-08T18:40:36.484Z,-11173.84
2022-11-08T18:43:43.118Z,-11174.97
2022-11-08T18:46:49.335Z,-11172.59
2022-11-08T18:49:59.558Z,-11179.88
2022-11-08T18:53:09.442Z,-11169.91
2022-11-08T18:56:16.363Z,-11177.06
2022-11-08T18:59:22.357Z,-11172.88
2022-11-08T19:02:28.739Z,-11181.84
2022-11-08T19:05:35.038Z,-11178.19
2022-11-08T19:08:42.478Z,-11158.94
2022-11-08T19:11:49.413Z,-11148.25
2022-11-08T19:14:55.573Z,-11151.63
2022-11-08T19:18:01.450Z,-11154.59
2022-11-08T19:21:10.036Z,-11163.31
2022-11-08T19:24:19.301Z,-11157.97
2022-11-08T19:27:25.669Z,-11160.78
2022-11-08T19:30:31.748Z,-11160.78
2022-11-08T19:33:38.090Z,-11170.06
2022-11-08T19:36:44.480Z,-11181.72
2022-11-08T19:39:52.034Z,-11166.81
2022-11-08T19:42:58.328Z,-11167.66
2022-11-08T19:46:06.116Z,-11165.41
2022-11-08T19:49:12.207Z,-11171.47
2022-11-08T19:52:18.081Z,-11168.09
2022-11-08T19:55:25.554Z,-11160.22
2022-11-08T19:58:33.070Z,-11163.72
2022-11-08T20:01:40.290Z,-11151.63
2022-11-08T20:04:47.051Z,-11147.00
2022-11-08T20:07:53.146Z,-11148.41
2022-11-08T20:11:00.931Z,-11136.31
2022-11-08T20:14:08.336Z,-11140.69
2022-11-08T20:17:14.206Z,-11147.56
2022-11-08T20:20:20.469Z,-11143.22
2022-11-08T20:23:27.265Z,-11132.38
2022-11-08T20:26:37.514Z,-11129.88
2022-11-08T20:29:43.759Z,-11132.25
2022-11-08T20:32:49.862Z,-11134.06
2022-11-08T20:35:56.205Z,-11129.88
2022-11-08T20:39:06.646Z,-11129.44
2022-11-08T20:42:18.503Z,-11142.22
2022-11-08T20:45:24.710Z,-11153.75
2022-11-08T20:48:31.390Z,-11149.09
2022-11-08T20:51:37.936Z,-11147.00
2022-11-08T20:54:45.220Z,-11143.91
2022-11-08T20:57:52.766Z,-11137.03
2022-11-08T21:01:00.189Z,-11130.28
2022-11-08T21:04:06.378Z,-11131.97
2022-11-08T21:08:01.503Z,-11128.75
2022-11-08T21:10:43.566Z,-11132.94
2022-11-08T21:13:51.511Z,-11138.44
2022-11-08T21:17:20.879Z,-11137.03
2022-11-08T21:20:23.206Z,-11133.78
2022-11-08T21:23:29.379Z,-11131.13
2022-11-08T21:26:36.935Z,-11131.53
2022-11-08T21:29:44.469Z,-11116.25
2022-11-08T21:32:50.806Z,-11104.31
2022-11-08T21:35:57.731Z,-11107.69
2022-11-08T21:39:03.877Z,-11107.97
2022-11-08T21:42:09.992Z,-11106.00
2022-11-08T21:45:17.842Z,-11107.53
2022-11-08T21:48:23.930Z,-11102.91
2022-11-08T21:51:31.425Z,-11102.62
2022-11-08T21:54:37.950Z,-11112.59
2022-11-08T21:57:44.169Z,-11097.84
2022-11-08T22:00:53.086Z,-11093.91
2022-11-08T22:04:00.072Z,-11109.22
2022-11-08T22:07:06.714Z,-11108.50
2022-11-08T22:10:13.085Z,-11112.16
2022-11-08T22:13:19.241Z,-11122.00
2022-11-08T22:16:26.626Z,-11119.19
2022-11-08T22:19:32.933Z,-11116.09
2022-11-08T22:22:38.880Z,-11110.75
2022-11-08T22:25:44.714Z,-11109.06
2022-11-08T22:28:50.721Z,-11116.38
2022-11-08T22:31:58.094Z,-11098.13
2022-11-08T22:35:22.961Z,-11101.78
2022-11-08T22:38:28.980Z,-11097.28
2022-11-08T22:41:35.021Z,-11106.13
2022-11-08T22:44:41.119Z,-11110.19
2022-11-08T22:47:48.610Z,-11109.91
2022-11-08T22:50:55.227Z,-11086.88
2022-11-08T22:54:01.864Z,-11086.31
2022-11-08T22:57:08.070Z,-11090.81
2022-11-08T23:00:15.682Z,-11079.72
2022-11-08T23:03:24.097Z,-11096.56
2022-11-08T23:06:30.845Z,-11100.78
2022-11-08T23:09:37.314Z,-11101.63
2022-11-08T23:13:01.010Z,-11090.81
2022-11-08T23:16:24.639Z,-11088.72
2022-11-08T23:19:49.546Z,-11097.00
2022-11-08T23:23:13.266Z,-11098.69
2022-11-08T23:26:40.039Z,-11078.88
2022-11-08T23:30:03.634Z,-11081.13
2022-11-08T23:33:09.684Z,-11092.50
2022-11-08T23:36:17.442Z,-11090.25
2022-11-08T23:39:23.798Z,-11078.19
2022-11-08T23:42:46.724Z,-11081.69
2022-11-08T23:45:53.126Z,-11067.22
2022-11-08T23:48:59.500Z,-11076.91
2022-11-08T23:52:07.251Z,-11081.00
2022-11-08T23:55:13.627Z,-11088.00
2022-11-08T23:58:20.713Z,-11079.03
